createdAt,value
2023-02-23T00:02:37.096Z,7.80
2023-02-23T00:05:39.173Z,9.18
2023-02-23T00:08:41.364Z,8.10
2023-02-23T00:11:43.344Z,7.83
2023-02-23T00:14:45.368Z,7.85
2023-02-23T00:17:47.945Z,9.25
2023-02-23T00:20:57.703Z,7.97
2023-02-23T00:24:00.986Z,8.35
2023-02-23T00:27:06.529Z,8.52
2023-02-23T00:30:09.310Z,8.13
2023-02-23T00:33:11.305Z,7.97
2023-02-23T00:36:15.769Z,8.43
2023-02-23T00:39:26.601Z,7.90
2023-02-23T00:42:32.342Z,8.40
2023-02-23T00:45:36.813Z,7.97
2023-02-23T00:48:39.280Z,8.77
2023-02-23T00:51:41.692Z,7.53
2023-02-23T00:54:43.727Z,8.30
2023-02-23T00:57:45.728Z,9.90
2023-02-23T01:00:47.695Z,9.00
2023-02-23T01:03:49.724Z,8.67
2023-02-23T01:06:51.747Z,8.07
2023-02-23T01:09:54.371Z,9.02
2023-02-23T01:12:56.325Z,6.73
2023-02-23T01:15:58.554Z,8.43
2023-02-23T01:19:03.591Z,7.85
2023-02-23T01:22:05.719Z,7.78
2023-02-23T01:25:07.907Z,8.00
2023-02-23T01:28:13.142Z,8.15
2023-02-23T01:31:16.050Z,7.97
2023-02-23T01:34:19.182Z,7.63
2023-02-23T01:37:21.200Z,8.52
2023-02-23T01:40:30.031Z,6.90
2023-02-23T01:43:32.066Z,8.93
2023-02-23T01:46:39.606Z,7.30
2023-02-23T01:49:41.589Z,7.40
2023-02-23T01:52:45.917Z,8.20
2023-02-23T01:55:50.051Z,7.60
2023-02-23T01:58:53.191Z,8.52
2023-02-23T02:01:55.718Z,9.02
2023-02-23T02:04:57.824Z,8.23
2023-02-23T02:08:06.438Z,8.05
2023-02-23T02:11:26.297Z,7.28
2023-02-23T02:14:30.839Z,8.03
2023-02-23T02:17:41.914Z,8.00
2023-02-23T02:21:06.098Z,7.05
2023-02-23T02:24:23.059Z,7.47
2023-02-23T02:27:57.607Z,8.23
2023-02-23T02:31:15.717Z,7.78
2023-02-23T02:34:32.713Z,8.75
2023-02-23T02:37:49.555Z,9.80
2023-02-23T02:40:54.643Z,8.90
2023-02-23T02:44:02.771Z,8.02
2023-02-23T02:47:08.584Z,10.23
2023-02-23T02:50:21.486Z,8.77
2023-02-23T02:53:43.929Z,9.98
2023-02-23T02:56:47.328Z,10.73
2023-02-23T03:00:08.581Z,10.68
2023-02-23T03:03:47.786Z,10.85
2023-02-23T03:07:14.652Z,12.57
2023-02-23T03:10:45.535Z,9.30
2023-02-23T03:14:05.918Z,10.52
2023-02-23T03:17:32.662Z,9.55
2023-02-23T03:20:53.144Z,10.53
2023-02-23T03:24:23.100Z,10.50
2023-02-23T03:28:01.817Z,12.10
2023-02-23T03:31:23.529Z,10.30
2023-02-23T03:35:10.224Z,10.85
2023-02-23T03:38:35.892Z,11.45
2023-02-23T03:41:59.292Z,10.40
2023-02-23T03:45:23.225Z,8.20
2023-02-23T03:48:45.590Z,10.70
2023-02-23T03:52:09.159Z,11.25
2023-02-23T03:55:34.971Z,11.27
2023-02-23T03:59:02.029Z,11.48
2023-02-23T04:02:24.247Z,10.00
2023-02-23T04:05:45.662Z,11.23
2023-02-23T04:09:07.593Z,10.98
2023-02-23T04:12:39.895Z,12.70
2023-02-23T04:15:49.424Z,11.45
2023-02-23T04:18:51.732Z,11.23
2023-02-23T04:21:53.865Z,12.38
2023-02-23T04:24:56.275Z,11.00
2023-02-23T04:27:58.242Z,11.90
2023-02-23T04:31:00.824Z,11.18
2023-02-23T04:34:04.946Z,11.15
2023-02-23T04:37:06.988Z,12.15
2023-02-23T04:40:09.424Z,12.63
2023-02-23T04:43:14.296Z,12.30
2023-02-23T04:46:16.327Z,11.73
2023-02-23T04:49:18.406Z,12.00
2023-02-23T04:52:20.358Z,12.25
2023-02-23T04:55:23.846Z,10.52
2023-02-23T04:58:27.004Z,11.80
2023-02-23T05:01:29.485Z,10.95
2023-02-23T05:04:31.630Z,12.50
2023-02-23T05:07:33.978Z,13.35
2023-02-23T05:10:35.982Z,13.82
2023-02-23T05:13:38.029Z,13.50
2023-02-23T05:16:40.140Z,12.68
2023-02-23T05:19:42.142Z,13.93
2023-02-23T05:22:44.167Z,14.27
2023-02-23T05:25:46.095Z,13.75
2023-02-23T05:28:48.826Z,12.60
2023-02-23T05:31:50.957Z,11.55
2023-02-23T05:34:53.129Z,14.25
2023-02-23T05:37:55.143Z,12.82
2023-02-23T05:40:57.085Z,12.70
2023-02-23T05:43:59.064Z,12.80
2023-02-23T05:47:01.123Z,13.88
2023-02-23T05:50:03.573Z,13.13
2023-02-23T05:53:05.597Z,12.70
2023-02-23T05:56:08.262Z,11.85
2023-02-23T05:59:10.305Z,14.43
2023-02-23T06:02:12.372Z,13.45
2023-02-23T06:05:15.744Z,35.60
2023-02-23T06:08:17.868Z,16.90
2023-02-23T06:11:20.460Z,13.88
2023-02-23T06:14:22.640Z,14.98
2023-02-23T06:17:24.768Z,14.35
2023-02-23T06:20:26.861Z,12.47
2023-02-23T06:23:29.599Z,14.82
2023-02-23T06:26:32.555Z,13.68
2023-02-23T06:29:34.630Z,13.57
2023-02-23T06:32:36.749Z,12.80
2023-02-23T06:35:39.558Z,13.85
2023-02-23T06:38:41.800Z,14.20
2023-02-23T06:41:43.787Z,16.52
2023-02-23T06:44:45.923Z,16.23
2023-02-23T06:47:47.982Z,14.20
2023-02-23T06:50:50.297Z,14.93
2023-02-23T06:53:55.507Z,14.15
2023-02-23T06:56:57.554Z,12.73
2023-02-23T07:00:01.945Z,14.73
2023-02-23T07:03:04.092Z,14.13
2023-02-23T07:06:06.997Z,15.55
2023-02-23T07:09:09.176Z,15.07
2023-02-23T07:12:11.407Z,14.45
2023-02-23T07:15:14.590Z,13.43
2023-02-23T07:18:16.619Z,14.27
2023-02-23T07:21:18.882Z,11.90
2023-02-23T07:24:22.064Z,13.88
2023-02-23T07:27:24.860Z,12.10
2023-02-23T07:30:27.085Z,13.60
2023-02-23T07:33:29.301Z,12.70
2023-02-23T07:36:31.532Z,13.35
2023-02-23T07:39:33.575Z,14.60
2023-02-23T07:42:35.810Z,13.35
2023-02-23T07:45:39.464Z,13.23
2023-02-23T07:48:45.400Z,12.57
2023-02-23T07:51:47.506Z,12.20
2023-02-23T07:54:49.603Z,12.50
2023-02-23T07:57:51.746Z,11.75
2023-02-23T08:00:54.603Z,11.17
2023-02-23T08:03:56.878Z,11.90
2023-02-23T08:06:59.622Z,11.60
2023-02-23T08:10:01.799Z,12.95
2023-02-23T08:13:04.349Z,9.48
2023-02-23T08:16:06.581Z,12.07
2023-02-23T08:19:09.862Z,11.55
2023-02-23T08:22:12.029Z,10.83
2023-02-23T08:25:14.554Z,12.90
2023-02-23T08:28:16.565Z,10.82
2023-02-23T08:31:21.573Z,10.57
2023-02-23T08:34:24.380Z,9.73
2023-02-23T08:37:26.453Z,10.82
2023-02-23T08:40:28.756Z,11.00
2023-02-23T08:43:31.509Z,11.57
2023-02-23T08:46:33.882Z,10.40
2023-02-23T08:49:36.237Z,10.45
2023-02-23T08:52:39.180Z,9.43
2023-02-23T08:55:41.389Z,10.02
2023-02-23T08:58:43.861Z,11.63
2023-02-23T09:01:46.219Z,10.52
2023-02-23T09:04:48.496Z,10.90
2023-02-23T09:07:50.990Z,10.60
2023-02-23T09:10:53.855Z,10.23
2023-02-23T09:13:55.980Z,10.60
2023-02-23T09:16:58.318Z,11.60
2023-02-23T09:20:00.354Z,10.23
2023-02-23T09:23:02.452Z,10.82
2023-02-23T09:26:08.634Z,9.97
2023-02-23T09:29:10.686Z,9.67
2023-02-23T09:32:12.931Z,10.63
2023-02-23T09:35:18.084Z,9.55
2023-02-23T09:38:20.314Z,10.43
2023-02-23T09:41:25.645Z,10.20
2023-02-23T09:44:28.058Z,9.68
2023-02-23T09:47:48.826Z,8.93
2023-02-23T09:50:52.605Z,9.80
2023-02-23T09:53:56.041Z,9.50
2023-02-23T09:57:00.969Z,8.50
2023-02-23T10:00:05.983Z,7.80
2023-02-23T10:03:19.693Z,8.23
2023-02-23T10:06:22.136Z,8.23
2023-02-23T10:09:28.577Z,8.93
2023-02-23T10:12:50.796Z,10.40
2023-02-23T10:15:56.185Z,8.50
2023-02-23T10:19:25.682Z,7.63
2023-02-23T10:22:28.896Z,8.55
2023-02-23T10:25:35.524Z,8.15
2023-02-23T10:28:39.971Z,7.15
2023-02-23T10:31:49.633Z,6.97
2023-02-23T10:34:56.756Z,5.75
2023-02-23T10:38:01.523Z,6.50
2023-02-23T10:41:04.484Z,6.85
2023-02-23T10:44:16.909Z,6.10
2023-02-23T10:47:20.399Z,5.53
2023-02-23T10:50:27.510Z,6.05
2023-02-23T10:53:36.598Z,5.47
2023-02-23T10:56:44.203Z,7.23
2023-02-23T11:00:00.859Z,6.97
2023-02-23T11:03:15.978Z,7.65
2023-02-23T11:06:39.702Z,7.00
2023-02-23T11:09:47.187Z,7.80
2023-02-23T11:12:50.100Z,6.43
2023-02-23T11:15:59.585Z,5.25
2023-02-23T11:19:02.892Z,6.35
2023-02-23T11:22:06.262Z,6.20
2023-02-23T11:25:17.717Z,5.97
2023-02-23T11:28:22.564Z,5.73
2023-02-23T11:31:35.070Z,7.28
2023-02-23T11:34:41.051Z,6.32
2023-02-23T11:37:43.253Z,6.00
2023-02-23T11:40:58.268Z,6.20
2023-02-23T11:44:03.632Z,5.90
2023-02-23T11:47:14.566Z,5.30
2023-02-23T11:50:22.739Z,5.28
2023-02-23T11:53:30.403Z,5.22
2023-02-23T11:56:33.741Z,6.67
2023-02-23T11:59:38.517Z,5.00
2023-02-23T12:02:47.810Z,5.65
2023-02-23T12:05:53.538Z,4.38
2023-02-23T12:09:03.207Z,8.57
2023-02-23T12:12:14.093Z,5.40
2023-02-23T12:15:23.097Z,5.30
2023-02-23T12:18:34.883Z,7.70
2023-02-23T12:22:00.283Z,7.50
2023-02-23T12:25:03.116Z,5.67
2023-02-23T12:28:18.240Z,5.10
2023-02-23T12:31:40.730Z,4.97
2023-02-23T12:35:16.138Z,5.93
2023-02-23T12:38:38.651Z,5.22
2023-02-23T12:41:45.559Z,4.97
2023-02-23T12:44:54.173Z,4.95
2023-02-23T12:48:08.937Z,6.22
2023-02-23T12:51:30.061Z,4.90
2023-02-23T12:54:35.744Z,4.63
2023-02-23T12:57:42.755Z,6.73
2023-02-23T13:01:14.851Z,4.75
2023-02-23T13:04:30.053Z,4.63
2023-02-23T13:07:50.551Z,4.85
2023-02-23T13:10:59.299Z,4.57
2023-02-23T13:14:09.554Z,5.10
2023-02-23T13:17:25.736Z,4.47
2023-02-23T13:20:28.748Z,4.28
2023-02-23T13:23:40.931Z,5.18
2023-02-23T13:26:44.471Z,5.30
2023-02-23T13:29:48.951Z,4.57
2023-02-23T13:32:51.129Z,5.13
2023-02-23T13:35:53.866Z,5.22
2023-02-23T13:39:01.327Z,4.95
2023-02-23T13:42:09.639Z,4.70
2023-02-23T13:45:17.521Z,5.33
2023-02-23T13:48:25.860Z,5.65
2023-02-23T13:51:31.125Z,6.03
2023-02-23T13:54:33.975Z,4.82
2023-02-23T13:57:37.307Z,4.30
2023-02-23T14:00:39.541Z,7.33
2023-02-23T14:03:54.450Z,4.82
2023-02-23T14:07:04.928Z,5.50
2023-02-23T14:10:08.962Z,4.80
2023-02-23T14:13:14.010Z,4.30
2023-02-23T14:16:17.915Z,4.60
2023-02-23T14:19:35.763Z,4.45
2023-02-23T14:22:57.745Z,4.55
2023-02-23T14:26:08.943Z,4.25
2023-02-23T14:29:11.183Z,5.10
2023-02-23T14:32:13.443Z,4.23
2023-02-23T14:35:34.556Z,4.72
2023-02-23T14:38:47.971Z,4.90
2023-02-23T14:41:52.918Z,4.95
2023-02-23T14:44:55.548Z,4.90
2023-02-23T14:48:00.077Z,4.10
2023-02-23T14:51:17.081Z,4.60
2023-02-23T14:54:24.036Z,5.50
2023-02-23T14:57:26.228Z,5.90
2023-02-23T15:00:39.061Z,6.00
2023-02-23T15:03:41.129Z,4.50
2023-02-23T15:06:47.070Z,6.40
2023-02-23T15:09:49.341Z,4.75
2023-02-23T15:12:52.084Z,4.35
2023-02-23T15:15:54.823Z,4.90
2023-02-23T15:18:58.909Z,5.80
2023-02-23T15:22:02.137Z,5.30
2023-02-23T15:25:24.224Z,5.55
2023-02-23T15:28:29.667Z,4.40
2023-02-23T15:31:31.872Z,4.80
2023-02-23T15:34:34.805Z,4.80
2023-02-23T15:37:39.712Z,4.82
2023-02-23T15:40:41.908Z,5.60
2023-02-23T15:43:44.021Z,7.80
2023-02-23T15:46:48.639Z,9.53
2023-02-23T15:49:51.018Z,8.90
2023-02-23T15:52:57.184Z,7.82
2023-02-23T15:56:03.628Z,7.30
2023-02-23T15:59:11.333Z,7.23
2023-02-23T16:02:19.538Z,7.57
2023-02-23T16:05:23.437Z,7.68
2023-02-23T16:08:25.972Z,7.60
2023-02-23T16:11:35.146Z,7.10
2023-02-23T16:14:50.746Z,7.32
2023-02-23T16:18:03.063Z,7.50
2023-02-23T16:21:05.949Z,7.18
2023-02-23T16:24:13.912Z,8.80
2023-02-23T16:27:16.014Z,8.27
2023-02-23T16:30:23.525Z,8.77
2023-02-23T16:33:37.649Z,9.98
2023-02-23T16:36:40.316Z,10.57
2023-02-23T16:39:42.349Z,10.00
2023-02-23T16:42:44.363Z,12.00
2023-02-23T16:45:46.617Z,13.07
2023-02-23T16:48:48.627Z,14.77
2023-02-23T16:51:51.397Z,14.60
2023-02-23T16:54:55.834Z,15.23
2023-02-23T16:57:59.925Z,12.07
2023-02-23T17:01:02.172Z,12.80
2023-02-23T17:04:04.261Z,10.80
2023-02-23T17:07:06.354Z,12.70
2023-02-23T17:10:08.790Z,14.40
2023-02-23T17:13:26.840Z,16.63
2023-02-23T17:16:28.883Z,17.70
2023-02-23T17:19:30.947Z,23.45
2023-02-23T17:22:33.536Z,28.92
2023-02-23T17:25:35.537Z,47.50
2023-02-23T17:28:38.102Z,44.67
2023-02-23T17:31:40.728Z,35.55
2023-02-23T17:34:43.194Z,30.73
2023-02-23T17:37:45.294Z,31.05
2023-02-23T17:40:47.751Z,28.15
2023-02-23T17:43:49.770Z,23.23
2023-02-23T17:46:51.813Z,17.83
2023-02-23T17:49:54.415Z,16.35
2023-02-23T17:52:57.426Z,14.13
2023-02-23T17:55:59.474Z,13.40
2023-02-23T17:59:01.742Z,12.77
2023-02-23T18:02:05.224Z,12.85
2023-02-23T18:05:08.303Z,10.80
2023-02-23T18:08:10.345Z,11.30
2023-02-23T18:11:12.558Z,12.88
2023-02-23T18:14:14.869Z,12.07
2023-02-23T18:17:16.963Z,15.23
2023-02-23T18:20:18.982Z,18.17
2023-02-23T18:23:22.229Z,24.42
2023-02-23T18:26:27.635Z,24.37
2023-02-23T18:29:30.838Z,23.33
2023-02-23T18:32:32.890Z,19.92
2023-02-23T18:35:36.314Z,16.57
2023-02-23T18:38:38.340Z,16.95
2023-02-23T18:41:41.819Z,16.10
2023-02-23T18:44:43.862Z,13.82
2023-02-23T18:47:46.480Z,16.90
2023-02-23T18:50:48.535Z,21.05
2023-02-23T18:53:50.725Z,19.23
2023-02-23T18:56:52.846Z,15.10
2023-02-23T18:59:54.966Z,14.68
2023-02-23T19:02:57.013Z,15.40
2023-02-23T19:05:59.228Z,15.97
2023-02-23T19:09:04.207Z,15.00
2023-02-23T19:12:06.414Z,15.68
2023-02-23T19:15:08.982Z,17.50
2023-02-23T19:18:11.022Z,15.10
2023-02-23T19:21:17.198Z,16.13
2023-02-23T19:24:20.709Z,16.27
2023-02-23T19:27:22.943Z,15.90
2023-02-23T19:30:25.422Z,19.63
2023-02-23T19:33:27.559Z,20.50
2023-02-23T19:36:31.815Z,21.17
2023-02-23T19:39:33.841Z,21.20
2023-02-23T19:42:36.991Z,21.15
2023-02-23T19:45:40.990Z,20.63
2023-02-23T19:48:44.854Z,21.70
2023-02-23T19:51:49.103Z,21.42
2023-02-23T19:54:51.104Z,51.28
2023-02-23T19:57:53.164Z,16.10
2023-02-23T20:00:57.532Z,22.67
2023-02-23T20:04:04.419Z,19.02
2023-02-23T20:07:07.610Z,19.93
2023-02-23T20:10:10.360Z,16.52
2023-02-23T20:13:12.364Z,17.42
2023-02-23T20:16:14.735Z,25.38
2023-02-23T20:19:17.518Z,22.42
2023-02-23T20:22:19.539Z,18.50
2023-02-23T20:25:22.883Z,16.70
2023-02-23T20:28:24.881Z,15.90
2023-02-23T20:31:29.108Z,16.10
2023-02-23T20:34:31.328Z,15.65
2023-02-23T20:37:34.067Z,21.73
2023-02-23T20:40:36.177Z,20.52
2023-02-23T20:43:39.147Z,20.88
2023-02-23T20:46:41.976Z,21.73
2023-02-23T20:49:43.985Z,18.83
2023-02-23T20:52:46.165Z,18.27
2023-02-23T20:55:48.384Z,19.63
2023-02-23T20:58:50.484Z,20.40
2023-02-23T21:01:52.498Z,16.80
2023-02-23T21:04:54.602Z,16.55
2023-02-23T21:08:04.763Z,14.53
2023-02-23T21:11:07.940Z,15.60
2023-02-23T21:14:09.971Z,14.88
2023-02-23T21:17:12.055Z,17.08
2023-02-23T21:20:14.369Z,16.63
2023-02-23T21:23:17.691Z,16.55
2023-02-23T21:26:21.715Z,17.60
2023-02-23T21:29:24.163Z,15.73
2023-02-23T21:32:30.955Z,17.05
2023-02-23T21:35:35.255Z,14.52
2023-02-23T21:38:38.231Z,15.77
2023-02-23T21:41:40.269Z,16.00
2023-02-23T21:44:44.587Z,17.10
2023-02-23T21:47:46.949Z,16.00
2023-02-23T21:50:49.134Z,18.70
2023-02-23T21:53:51.229Z,21.30
2023-02-23T21:56:53.224Z,21.17
2023-02-23T21:59:55.230Z,19.10
2023-02-23T22:02:57.257Z,18.10
2023-02-23T22:06:00.563Z,17.67
2023-02-23T22:09:03.306Z,15.93
2023-02-23T22:12:05.758Z,15.98
2023-02-23T22:15:08.230Z,16.05
2023-02-23T22:18:14.179Z,15.40
2023-02-23T22:21:16.170Z,16.67
2023-02-23T22:24:18.303Z,19.50
2023-02-23T22:27:20.525Z,20.30
2023-02-23T22:30:22.578Z,17.00
2023-02-23T22:33:24.724Z,17.05
2023-02-23T22:36:26.752Z,16.70
2023-02-23T22:39:33.358Z,14.53
2023-02-23T22:42:35.454Z,13.07
2023-02-23T22:45:38.652Z,15.68
2023-02-23T22:48:43.602Z,16.40
2023-02-23T22:51:46.118Z,15.52
2023-02-23T22:54:48.101Z,14.98
2023-02-23T22:57:50.067Z,15.60
2023-02-23T23:01:06.062Z,12.13
2023-02-23T23:04:10.951Z,13.48
2023-02-23T23:07:13.243Z,11.95
2023-02-23T23:10:16.085Z,12.43
2023-02-23T23:13:18.151Z,12.80
2023-02-23T23:16:31.055Z,11.45
2023-02-23T23:19:39.084Z,12.57
2023-02-23T23:22:41.606Z,11.63
2023-02-23T23:25:46.075Z,12.25
2023-02-23T23:28:49.508Z,12.13
2023-02-23T23:31:51.863Z,12.10
2023-02-23T23:34:57.365Z,13.80
2023-02-23T23:38:01.697Z,12.50
2023-02-23T23:41:10.309Z,12.77
2023-02-23T23:44:13.309Z,13.23
2023-02-23T23:47:15.399Z,14.20
2023-02-23T23:50:17.564Z,15.18
2023-02-23T23:53:20.076Z,12.52
2023-02-23T23:56:22.058Z,12.05
2023-02-23T23:59:24.953Z,11.20
